sensor_id;sensor_type;location;lat;lon;timestamp;pressure;altitude;pressure_sealevel;temperature;humidity
85760;BME280;76206;39.770;2.710;2024-03-08T07:09:24;100543.70;;;14.39;64.87
85760;BME280;76206;39.770;2.710;2024-03-08T07:11:50;100569.46;;;14.41;64.57
85760;BME280;76206;39.770;2.710;2024-03-08T07:14:23;100590.70;;;14.50;64.97
85760;BME280;76206;39.770;2.710;2024-03-08T07:16:49;100596.36;;;14.57;65.01
85760;BME280;76206;39.770;2.710;2024-03-08T07:19:15;100604.02;;;14.67;65.03
85760;BME280;76206;39.770;2.710;2024-03-08T07:21:41;100600.47;;;14.78;64.75
85760;BME280;76206;39.770;2.710;2024-03-08T07:24:07;100608.84;;;14.89;64.63
85760;BME280;76206;39.770;2.710;2024-03-08T07:26:45;100616.08;;;15.01;64.64
85760;BME280;76206;39.770;2.710;2024-03-08T07:29:15;100625.29;;;15.15;64.54
85760;BME280;76206;39.770;2.710;2024-03-08T07:31:41;100634.73;;;15.28;64.48
85760;BME280;76206;39.770;2.710;2024-03-08T07:34:06;100635.98;;;15.40;64.08
85760;BME280;76206;39.770;2.710;2024-03-08T07:36:33;100633.20;;;15.53;62.62
85760;BME280;76206;39.770;2.710;2024-03-08T07:39:00;100627.49;;;15.60;61.67
85760;BME280;76206;39.770;2.710;2024-03-08T07:41:25;100638.07;;;15.64;60.69
85760;BME280;76206;39.770;2.710;2024-03-08T07:43:51;100648.32;;;15.65;60.38
85760;BME280;76206;39.770;2.710;2024-03-08T07:46:17;100659.23;;;15.64;59.55
85760;BME280;76206;39.770;2.710;2024-03-08T07:48:44;100654.52;;;15.60;58.82
85760;BME280;76206;39.770;2.710;2024-03-08T07:51:10;100650.77;;;15.55;58.39
85760;BME280;76206;39.770;2.710;2024-03-08T07:53:38;100645.30;;;15.49;58.09
85760;BME280;76206;39.770;2.710;2024-03-08T07:56:04;100657.27;;;15.42;57.84
85760;BME280;76206;39.770;2.710;2024-03-08T07:58:34;100657.51;;;15.33;57.18
85760;BME280;76206;39.770;2.710;2024-03-08T08:00:59;100649.38;;;15.25;56.98
85760;BME280;76206;39.770;2.710;2024-03-08T08:03:25;100648.48;;;15.17;56.13
85760;BME280;76206;39.770;2.710;2024-03-08T08:05:50;100643.59;;;15.10;56.21
85760;BME280;76206;39.770;2.710;2024-03-08T08:08:16;100633.38;;;15.04;55.29
85760;BME280;76206;39.770;2.710;2024-03-08T08:10:41;100627.10;;;14.99;54.90
85760;BME280;76206;39.770;2.710;2024-03-08T08:13:07;100641.36;;;14.96;55.01
85760;BME280;76206;39.770;2.710;2024-03-08T08:15:33;100647.30;;;14.95;54.86
85760;BME280;76206;39.770;2.710;2024-03-08T08:18:01;100655.46;;;14.94;54.90
85760;BME280;76206;39.770;2.710;2024-03-08T08:20:28;100656.38;;;14.93;54.21
85760;BME280;76206;39.770;2.710;2024-03-08T08:22:54;100666.60;;;14.88;54.12
85760;BME280;76206;39.770;2.710;2024-03-08T08:25:20;100656.29;;;14.77;54.16
85760;BME280;76206;39.770;2.710;2024-03-08T08:27:47;100655.61;;;14.60;54.48
85760;BME280;76206;39.770;2.710;2024-03-08T08:30:13;100660.52;;;14.40;54.77
85760;BME280;76206;39.770;2.710;2024-03-08T08:32:39;100677.48;;;14.15;54.57
85760;BME280;76206;39.770;2.710;2024-03-08T08:35:04;100663.60;;;13.87;54.51
85760;BME280;76206;39.770;2.710;2024-03-08T08:37:31;100651.98;;;13.63;54.23
85760;BME280;76206;39.770;2.710;2024-03-08T08:39:57;100660.98;;;13.43;54.16
85760;BME280;76206;39.770;2.710;2024-03-08T08:42:23;100664.08;;;13.30;54.37
85760;BME280;76206;39.770;2.710;2024-03-08T08:44:49;100669.77;;;13.19;54.33
85760;BME280;76206;39.770;2.710;2024-03-08T08:47:16;100664.09;;;13.11;53.96
85760;BME280;76206;39.770;2.710;2024-03-08T08:49:45;100663.33;;;13.05;54.12
85760;BME280;76206;39.770;2.710;2024-03-08T08:52:14;100662.25;;;13.02;53.74
85760;BME280;76206;39.770;2.710;2024-03-08T08:54:42;100672.52;;;13.01;53.49
85760;BME280;76206;39.770;2.710;2024-03-08T08:57:08;100663.82;;;13.00;53.60
85760;BME280;76206;39.770;2.710;2024-03-08T08:59:36;100666.20;;;13.11;53.19
85760;BME280;76206;39.770;2.710;2024-03-08T09:02:07;100662.42;;;13.31;52.61
85760;BME280;76206;39.770;2.710;2024-03-08T09:04:34;100660.63;;;13.69;51.66
85760;BME280;76206;39.770;2.710;2024-03-08T09:07:01;100669.41;;;14.22;50.95
85760;BME280;76206;39.770;2.710;2024-03-08T09:09:26;100681.77;;;14.63;49.98
85760;BME280;76206;39.770;2.710;2024-03-08T09:11:52;100677.40;;;14.85;48.97
85760;BME280;76206;39.770;2.710;2024-03-08T09:14:18;100674.94;;;15.30;48.34
85760;BME280;76206;39.770;2.710;2024-03-08T09:16:43;100669.30;;;15.95;47.31
85760;BME280;76206;39.770;2.710;2024-03-08T09:19:08;100671.19;;;16.72;46.87
85760;BME280;76206;39.770;2.710;2024-03-08T09:21:36;100661.92;;;17.81;46.58
85760;BME280;76206;39.770;2.710;2024-03-08T09:24:02;100669.27;;;19.13;44.78
85760;BME280;76206;39.770;2.710;2024-03-08T09:26:27;100650.94;;;20.30;43.07
85760;BME280;76206;39.770;2.710;2024-03-08T09:28:53;100646.16;;;21.20;41.93
85760;BME280;76206;39.770;2.710;2024-03-08T09:31:20;100655.45;;;22.05;41.22
85760;BME280;76206;39.770;2.710;2024-03-08T09:33:46;100651.39;;;22.90;39.82
85760;BME280;76206;39.770;2.710;2024-03-08T09:36:12;100667.82;;;23.89;39.05
85760;BME280;76206;39.770;2.710;2024-03-08T09:38:39;100669.63;;;25.04;37.44
85760;BME280;76206;39.770;2.710;2024-03-08T09:41:05;100677.30;;;26.19;36.18
85760;BME280;76206;39.770;2.710;2024-03-08T09:43:30;100667.63;;;27.09;35.05
85760;BME280;76206;39.770;2.710;2024-03-08T09:45:57;100669.02;;;27.93;34.23
85760;BME280;76206;39.770;2.710;2024-03-08T09:48:23;100665.34;;;28.82;33.09
85760;BME280;76206;39.770;2.710;2024-03-08T09:50:48;100671.41;;;29.70;32.66
85760;BME280;76206;39.770;2.710;2024-03-08T09:53:14;100673.86;;;30.53;31.85
85760;BME280;76206;39.770;2.710;2024-03-08T09:55:40;100679.17;;;31.30;30.92
85760;BME280;76206;39.770;2.710;2024-03-08T09:58:14;100681.08;;;32.12;29.96
85760;BME280;76206;39.770;2.710;2024-03-08T10:00:58;100691.43;;;32.92;28.75
85760;BME280;76206;39.770;2.710;2024-03-08T10:03:27;100688.08;;;33.50;28.42
85760;BME280;76206;39.770;2.710;2024-03-08T10:05:53;100690.52;;;34.03;27.40
85760;BME280;76206;39.770;2.710;2024-03-08T10:08:28;100682.99;;;34.54;26.76
85760;BME280;76206;39.770;2.710;2024-03-08T10:10:57;100675.90;;;34.96;26.27
85760;BME280;76206;39.770;2.710;2024-03-08T10:13:26;100678.63;;;35.45;25.59
85760;BME280;76206;39.770;2.710;2024-03-08T10:15:53;100684.73;;;35.92;25.03
85760;BME280;76206;39.770;2.710;2024-03-08T10:18:21;100693.73;;;36.36;24.80
85760;BME280;76206;39.770;2.710;2024-03-08T10:21:02;100693.25;;;36.76;24.08
85760;BME280;76206;39.770;2.710;2024-03-08T10:23:30;100689.29;;;37.18;23.71
85760;BME280;76206;39.770;2.710;2024-03-08T10:25:55;100684.92;;;37.50;22.32
85760;BME280;76206;39.770;2.710;2024-03-08T10:28:23;100693.33;;;37.63;21.90
85760;BME280;76206;39.770;2.710;2024-03-08T10:30:50;100689.83;;;37.73;21.27
85760;BME280;76206;39.770;2.710;2024-03-08T10:33:15;100686.65;;;37.78;21.15
85760;BME280;76206;39.770;2.710;2024-03-08T10:35:41;100680.77;;;37.89;21.00
85760;BME280;76206;39.770;2.710;2024-03-08T10:38:08;100679.59;;;38.03;20.53
85760;BME280;76206;39.770;2.710;2024-03-08T10:40:38;100677.80;;;38.17;20.01
85760;BME280;76206;39.770;2.710;2024-03-08T10:43:11;100675.36;;;38.35;19.93
85760;BME280;76206;39.770;2.710;2024-03-08T10:45:46;100682.42;;;38.62;19.75
85760;BME280;76206;39.770;2.710;2024-03-08T10:50:53;100685.91;;;39.25;19.29
85760;BME280;76206;39.770;2.710;2024-03-08T10:53:20;100682.01;;;39.43;18.72
85760;BME280;76206;39.770;2.710;2024-03-08T10:55:49;100676.48;;;39.55;18.47
85760;BME280;76206;39.770;2.710;2024-03-08T10:58:17;100666.09;;;39.69;18.20
85760;BME280;76206;39.770;2.710;2024-03-08T11:00:43;100667.77;;;39.65;17.80
85760;BME280;76206;39.770;2.710;2024-03-08T11:09:08;100661.19;;;39.66;17.35
85760;BME280;76206;39.770;2.710;2024-03-08T11:11:38;100662.64;;;39.69;17.08
85760;BME280;76206;39.770;2.710;2024-03-08T11:19:48;100654.02;;;39.78;16.68
85760;BME280;76206;39.770;2.710;2024-03-08T11:22:21;100657.16;;;39.70;16.85
85760;BME280;76206;39.770;2.710;2024-03-08T11:24:49;100657.05;;;39.64;16.79
85760;BME280;76206;39.770;2.710;2024-03-08T11:27:15;100659.36;;;39.60;16.49
85760;BME280;76206;39.770;2.710;2024-03-08T11:29:40;100655.00;;;39.39;16.60
85760;BME280;76206;39.770;2.710;2024-03-08T11:32:15;100657.63;;;39.09;16.43
85760;BME280;76206;39.770;2.710;2024-03-08T11:34:43;100671.06;;;38.57;16.60
85760;BME280;76206;39.770;2.710;2024-03-08T11:37:13;100669.63;;;37.87;16.93
85760;BME280;76206;39.770;2.710;2024-03-08T11:39:41;100668.04;;;37.01;17.18
85760;BME280;76206;39.770;2.710;2024-03-08T11:42:11;100686.02;;;36.10;17.70
85760;BME280;76206;39.770;2.710;2024-03-08T11:44:37;100686.06;;;35.28;18.00
85760;BME280;76206;39.770;2.710;2024-03-08T11:47:09;100689.84;;;34.43;18.65
85760;BME280;76206;39.770;2.710;2024-03-08T11:49:35;100682.38;;;33.69;18.89
85760;BME280;76206;39.770;2.710;2024-03-08T11:52:01;100678.54;;;32.95;19.28
85760;BME280;76206;39.770;2.710;2024-03-08T11:54:28;100679.83;;;32.32;20.23
85760;BME280;76206;39.770;2.710;2024-03-08T11:56:56;100678.96;;;31.79;20.45
85760;BME280;76206;39.770;2.710;2024-03-08T11:59:27;100682.55;;;31.24;20.58
85760;BME280;76206;39.770;2.710;2024-03-08T12:02:03;100691.95;;;30.61;20.66
85760;BME280;76206;39.770;2.710;2024-03-08T12:04:30;100687.38;;;29.93;21.07
85760;BME280;76206;39.770;2.710;2024-03-08T12:06:59;100686.61;;;29.36;21.35
85760;BME280;76206;39.770;2.710;2024-03-08T12:09:28;100689.80;;;28.81;21.78
85760;BME280;76206;39.770;2.710;2024-03-08T12:11:53;100684.86;;;28.28;21.95
85760;BME280;76206;39.770;2.710;2024-03-08T12:14:19;100681.27;;;27.80;22.50
85760;BME280;76206;39.770;2.710;2024-03-08T12:16:46;100676.73;;;27.30;22.53
85760;BME280;76206;39.770;2.710;2024-03-08T12:19:12;100670.74;;;26.81;22.97
85760;BME280;76206;39.770;2.710;2024-03-08T12:21:38;100665.83;;;26.34;23.28
85760;BME280;76206;39.770;2.710;2024-03-08T12:24:09;100663.32;;;25.95;23.62
85760;BME280;76206;39.770;2.710;2024-03-08T12:26:37;100655.92;;;25.63;23.83
85760;BME280;76206;39.770;2.710;2024-03-08T12:31:51;100644.38;;;25.11;24.28
85760;BME280;76206;39.770;2.710;2024-03-08T12:34:20;100640.05;;;24.87;24.61
85760;BME280;76206;39.770;2.710;2024-03-08T12:36:50;100643.09;;;24.68;24.85
85760;BME280;76206;39.770;2.710;2024-03-08T12:39:20;100639.23;;;24.52;25.10
85760;BME280;76206;39.770;2.710;2024-03-08T12:41:56;100636.03;;;24.36;25.16
85760;BME280;76206;39.770;2.710;2024-03-08T12:44:27;100638.17;;;24.24;25.75
85760;BME280;76206;39.770;2.710;2024-03-08T12:46:54;100623.19;;;23.99;26.08
85760;BME280;76206;39.770;2.710;2024-03-08T12:49:19;100613.73;;;23.62;26.43
85760;BME280;76206;39.770;2.710;2024-03-08T12:51:48;100606.14;;;23.28;27.03
85760;BME280;76206;39.770;2.710;2024-03-08T12:54:14;100602.61;;;22.94;27.58
85760;BME280;76206;39.770;2.710;2024-03-08T12:56:39;100601.05;;;22.59;28.01
85760;BME280;76206;39.770;2.710;2024-03-08T12:59:06;100604.95;;;22.27;28.24
85760;BME280;76206;39.770;2.710;2024-03-08T13:01:38;100599.04;;;21.97;28.43
85760;BME280;76206;39.770;2.710;2024-03-08T13:04:04;100599.20;;;21.73;28.64
85760;BME280;76206;39.770;2.710;2024-03-08T13:06:32;100599.02;;;21.54;29.06
85760;BME280;76206;39.770;2.710;2024-03-08T13:08:58;100601.73;;;21.36;29.49
85760;BME280;76206;39.770;2.710;2024-03-08T13:11:26;100605.26;;;21.23;30.15
85760;BME280;76206;39.770;2.710;2024-03-08T13:13:52;100602.60;;;21.19;29.90
85760;BME280;76206;39.770;2.710;2024-03-08T13:16:20;100597.52;;;21.15;29.94
85760;BME280;76206;39.770;2.710;2024-03-08T13:18:46;100596.08;;;21.16;30.01
85760;BME280;76206;39.770;2.710;2024-03-08T13:21:15;100589.02;;;21.21;29.93
85760;BME280;76206;39.770;2.710;2024-03-08T13:23:43;100575.03;;;21.27;29.69
85760;BME280;76206;39.770;2.710;2024-03-08T13:26:15;100580.17;;;21.31;29.67
85760;BME280;76206;39.770;2.710;2024-03-08T13:28:47;100572.26;;;21.30;29.62
85760;BME280;76206;39.770;2.710;2024-03-08T13:31:18;100564.66;;;21.23;29.78
85760;BME280;76206;39.770;2.710;2024-03-08T13:33:44;100567.79;;;21.15;29.85
85760;BME280;76206;39.770;2.710;2024-03-08T13:36:12;100577.80;;;21.04;30.21
85760;BME280;76206;39.770;2.710;2024-03-08T13:38:45;100582.39;;;20.94;30.50
85760;BME280;76206;39.770;2.710;2024-03-08T13:41:12;100586.34;;;20.85;30.72
85760;BME280;76206;39.770;2.710;2024-03-08T13:43:48;100590.34;;;20.79;31.24
85760;BME280;76206;39.770;2.710;2024-03-08T13:46:18;100578.08;;;20.73;31.69
85760;BME280;76206;39.770;2.710;2024-03-08T13:48:44;100580.73;;;20.67;31.88
85760;BME280;76206;39.770;2.710;2024-03-08T13:51:09;100578.09;;;20.62;31.86
85760;BME280;76206;39.770;2.710;2024-03-08T14:10:49;100554.66;;;20.26;32.27
85760;BME280;76206;39.770;2.710;2024-03-08T14:13:16;100555.46;;;20.23;32.49
85760;BME280;76206;39.770;2.710;2024-03-08T14:15:44;100552.80;;;20.25;32.46
85760;BME280;76206;39.770;2.710;2024-03-08T14:18:11;100553.38;;;20.26;32.94
85760;BME280;76206;39.770;2.710;2024-03-08T14:20:38;100555.83;;;20.28;32.89
85760;BME280;76206;39.770;2.710;2024-03-08T14:23:04;100556.43;;;20.29;32.60
85760;BME280;76206;39.770;2.710;2024-03-08T14:25:32;100552.69;;;20.31;32.69
85760;BME280;76206;39.770;2.710;2024-03-08T14:27:58;100559.20;;;20.33;32.67
85760;BME280;76206;39.770;2.710;2024-03-08T14:30:27;100555.55;;;20.38;33.15
85760;BME280;76206;39.770;2.710;2024-03-08T14:33:04;100551.27;;;20.43;33.15
85760;BME280;76206;39.770;2.710;2024-03-08T14:35:40;100543.82;;;20.48;32.83
85760;BME280;76206;39.770;2.710;2024-03-08T14:38:06;100543.52;;;20.51;32.89
85760;BME280;76206;39.770;2.710;2024-03-08T14:40:36;100547.50;;;20.52;32.66
85760;BME280;76206;39.770;2.710;2024-03-08T14:43:02;100549.33;;;20.50;32.62
85760;BME280;76206;39.770;2.710;2024-03-08T14:45:27;100546.16;;;20.41;32.56
85760;BME280;76206;39.770;2.710;2024-03-08T14:47:53;100549.04;;;20.32;32.52
85760;BME280;76206;39.770;2.710;2024-03-08T14:50:21;100551.66;;;20.22;32.44
85760;BME280;76206;39.770;2.710;2024-03-08T14:52:51;100557.23;;;20.10;32.35
85760;BME280;76206;39.770;2.710;2024-03-08T14:55:18;100550.61;;;19.97;32.44
85760;BME280;76206;39.770;2.710;2024-03-08T14:57:49;100558.02;;;19.89;32.54
85760;BME280;76206;39.770;2.710;2024-03-08T15:00:20;100563.91;;;19.82;32.52
85760;BME280;76206;39.770;2.710;2024-03-08T15:03:01;100563.70;;;19.75;32.42
85760;BME280;76206;39.770;2.710;2024-03-08T15:05:35;100566.17;;;19.70;32.46
85760;BME280;76206;39.770;2.710;2024-03-08T15:08:06;100559.55;;;19.64;32.34
85760;BME280;76206;39.770;2.710;2024-03-08T15:10:35;100554.95;;;19.60;32.44
85760;BME280;76206;39.770;2.710;2024-03-08T15:13:01;100556.30;;;19.58;32.42
85760;BME280;76206;39.770;2.710;2024-03-08T15:15:33;100555.85;;;19.55;32.67
85760;BME280;76206;39.770;2.710;2024-03-08T15:17:59;100551.63;;;19.55;32.63
85760;BME280;76206;39.770;2.710;2024-03-08T15:20:24;100545.74;;;19.56;32.68
85760;BME280;76206;39.770;2.710;2024-03-08T15:22:53;100550.33;;;19.57;32.74
85760;BME280;76206;39.770;2.710;2024-03-08T15:25:21;100547.29;;;19.59;32.72
85760;BME280;76206;39.770;2.710;2024-03-08T15:27:54;100545.27;;;19.60;32.95
85760;BME280;76206;39.770;2.710;2024-03-08T15:30:20;100547.20;;;19.62;33.18
85760;BME280;76206;39.770;2.710;2024-03-08T15:32:51;100548.27;;;19.63;33.15
85760;BME280;76206;39.770;2.710;2024-03-08T15:35:22;100548.67;;;19.65;33.26
85760;BME280;76206;39.770;2.710;2024-03-08T15:37:48;100546.61;;;19.62;33.38
85760;BME280;76206;39.770;2.710;2024-03-08T15:40:14;100547.79;;;19.60;33.59
85760;BME280;76206;39.770;2.710;2024-03-08T15:43:00;100546.88;;;19.56;33.63
85760;BME280;76206;39.770;2.710;2024-03-08T15:45:25;100546.98;;;19.52;33.85
85760;BME280;76206;39.770;2.710;2024-03-08T15:47:57;100546.30;;;19.49;33.89
85760;BME280;76206;39.770;2.710;2024-03-08T15:50:23;100544.86;;;19.47;34.10
85760;BME280;76206;39.770;2.710;2024-03-08T15:52:49;100538.03;;;19.46;34.28
85760;BME280;76206;39.770;2.710;2024-03-08T15:55:16;100540.29;;;19.45;34.21
85760;BME280;76206;39.770;2.710;2024-03-08T15:57:53;100543.13;;;19.42;34.43
85760;BME280;76206;39.770;2.710;2024-03-08T16:00:22;100550.58;;;19.40;34.27
85760;BME280;76206;39.770;2.710;2024-03-08T16:03:11;100555.25;;;19.37;34.30
85760;BME280;76206;39.770;2.710;2024-03-08T16:05:40;100546.73;;;19.30;34.31
85760;BME280;76206;39.770;2.710;2024-03-08T16:08:10;100542.23;;;19.23;34.65
85760;BME280;76206;39.770;2.710;2024-03-08T16:10:54;100545.06;;;19.19;34.68
85760;BME280;76206;39.770;2.710;2024-03-08T16:13:24;100547.08;;;19.18;34.63
85760;BME280;76206;39.770;2.710;2024-03-08T16:15:54;100545.88;;;19.18;34.78
85760;BME280;76206;39.770;2.710;2024-03-08T16:18:20;100549.73;;;19.16;34.87
85760;BME280;76206;39.770;2.710;2024-03-08T16:20:47;100548.55;;;19.13;34.97
85760;BME280;76206;39.770;2.710;2024-03-08T16:23:13;100552.20;;;19.10;35.08
85760;BME280;76206;39.770;2.710;2024-03-08T16:25:42;100556.55;;;19.07;35.12
85760;BME280;76206;39.770;2.710;2024-03-08T16:28:08;100558.22;;;19.04;35.29
85760;BME280;76206;39.770;2.710;2024-03-08T16:30:34;100562.83;;;19.02;35.36
85760;BME280;76206;39.770;2.710;2024-03-08T16:33:00;100569.02;;;18.98;35.66
85760;BME280;76206;39.770;2.710;2024-03-08T16:35:26;100570.41;;;18.93;35.64
85760;BME280;76206;39.770;2.710;2024-03-08T16:37:51;100564.30;;;18.87;35.65
85760;BME280;76206;39.770;2.710;2024-03-08T16:40:18;100569.52;;;18.83;35.90
85760;BME280;76206;39.770;2.710;2024-03-08T16:42:48;100565.30;;;18.79;35.87
85760;BME280;76206;39.770;2.710;2024-03-08T16:45:18;100569.34;;;18.72;35.85
